메인 페이지
METAR-TAF:

METAR-TAF

공항 :

Sherman / Denison, 텍사스, 미국

위도: 33-43N, 경도: 096-40W, 고도: 228m

현재 날씨관측

예보는 15분 전, 22:50시(UTC)에 발표되었습니다.
남남동9kt
온도 22°C
습도 78%
기압 1014 hPa
시정: 16.1km
고도 3000ft 상공 구름 보통
고도 5000ft 상공 구름 보통
고도 7000ft 상공 구름 많음

METAR: KGYI 232250Z 16009KT 10SM SCT030 SCT050 BKN070 22/18 A2994

시각: 18:05 (23:05 UTC)


TAF: 누락

4,000개 이상의 공항 관측 자료 및 예보 (METAR 및 TAF 보고).

지도상에서 검색 가능한 기상관측소가 노란 점과 빨간 점으로 표시되어 있습니다.

기상관측소 명을 보려면 표시 위로 마우스를 이동하세요.

날씨 관측과 예보를 보려면 클릭하세요.

지도 변경 : 확대하려면 엑스 표시가 있는 녹색 버튼, 축소하려면 빼기 표시가 있는 녹색 버튼, 다음 페이지의 지도를 보려면 녹색 화살표를 클릭하세요.


METAR-TAF: